sensor_id;sensor_type;location;lat;lon;timestamp;pressure;altitude;pressure_sealevel;temperature;humidity
68199;BME280;55021;51.554;17.044;2023-10-19T00:01:41;99959.19;;;4.84;90.06
68199;BME280;55021;51.554;17.044;2023-10-19T00:16:44;99922.63;;;4.44;92.09
68199;BME280;55021;51.554;17.044;2023-10-19T00:31:46;99888.81;;;5.10;89.28
68199;BME280;55021;51.554;17.044;2023-10-19T00:46:49;99852.63;;;5.33;87.84
68199;BME280;55021;51.554;17.044;2023-10-19T01:01:54;99829.13;;;4.58;90.27
68199;BME280;55021;51.554;17.044;2023-10-19T01:16:56;99824.78;;;4.86;89.17
68199;BME280;55021;51.554;17.044;2023-10-19T01:31:58;99783.91;;;4.82;90.09
68199;BME280;55021;51.554;17.044;2023-10-19T01:47:00;99754.25;;;5.03;90.49
68199;BME280;55021;51.554;17.044;2023-10-19T02:02:03;99657.88;;;4.71;89.29
68199;BME280;55021;51.554;17.044;2023-10-19T02:17:05;99714.97;;;4.92;89.57
68199;BME280;55021;51.554;17.044;2023-10-19T02:32:07;99611.22;;;4.07;90.55
68199;BME280;55021;51.554;17.044;2023-10-19T02:47:10;99639.84;;;4.54;91.42
68199;BME280;55021;51.554;17.044;2023-10-19T03:02:12;99633.06;;;4.50;91.51
68199;BME280;55021;51.554;17.044;2023-10-19T03:17:14;99626.56;;;4.33;92.32
68199;BME280;55021;51.554;17.044;2023-10-19T03:32:16;99609.53;;;3.96;94.28
68199;BME280;55021;51.554;17.044;2023-10-19T03:47:19;99597.91;;;4.34;92.63
68199;BME280;55021;51.554;17.044;2023-10-19T04:02:21;99569.13;;;5.10;88.93
68199;BME280;55021;51.554;17.044;2023-10-19T04:17:27;99554.34;;;3.94;94.49
68199;BME280;55021;51.554;17.044;2023-10-19T04:32:29;99524.09;;;5.04;91.05
68199;BME280;55021;51.554;17.044;2023-10-19T04:47:32;99522.88;;;4.88;90.08
68199;BME280;55021;51.554;17.044;2023-10-19T05:02:34;99497.00;;;4.87;91.08
68199;BME280;55021;51.554;17.044;2023-10-19T05:17:36;99476.16;;;4.72;91.69
68199;BME280;55021;51.554;17.044;2023-10-19T05:32:39;99454.91;;;5.58;88.96
68199;BME280;55021;51.554;17.044;2023-10-19T05:47:41;99451.41;;;5.58;89.57
68199;BME280;55021;51.554;17.044;2023-10-19T06:02:44;99442.03;;;6.73;83.22
68199;BME280;55021;51.554;17.044;2023-10-19T06:17:47;99412.97;;;7.09;79.60
68199;BME280;55021;51.554;17.044;2023-10-19T06:32:49;99437.16;;;7.59;77.71
68199;BME280;55021;51.554;17.044;2023-10-19T06:47:52;99403.78;;;7.76;76.93
68199;BME280;55021;51.554;17.044;2023-10-19T07:02:55;99412.69;;;7.84;77.44
68199;BME280;55021;51.554;17.044;2023-10-19T07:17:58;99374.69;;;8.02;77.61
68199;BME280;55021;51.554;17.044;2023-10-19T07:33:00;99362.97;;;8.34;76.30
68199;BME280;55021;51.554;17.044;2023-10-19T07:48:03;99341.59;;;8.55;74.58
68199;BME280;55021;51.554;17.044;2023-10-19T08:03:06;99330.16;;;9.29;73.48
68199;BME280;55021;51.554;17.044;2023-10-19T08:18:08;99310.22;;;9.45;76.65
68199;BME280;55021;51.554;17.044;2023-10-19T08:33:10;99284.06;;;9.23;80.36
68199;BME280;55021;51.554;17.044;2023-10-19T08:48:13;99295.94;;;9.74;79.81
68199;BME280;55021;51.554;17.044;2023-10-19T09:03:16;99313.19;;;9.73;81.90
68199;BME280;55021;51.554;17.044;2023-10-19T09:18:19;99307.13;;;10.00;81.04
68199;BME280;55021;51.554;17.044;2023-10-19T09:33:22;99323.16;;;10.01;82.02
68199;BME280;55021;51.554;17.044;2023-10-19T09:48:25;99308.78;;;10.15;84.08
68199;BME280;55021;51.554;17.044;2023-10-19T10:03:47;99274.06;;;10.04;85.71
68199;BME280;55021;51.554;17.044;2023-10-19T10:18:50;99259.72;;;9.60;89.89
68199;BME280;55021;51.554;17.044;2023-10-19T10:33:53;99241.22;;;9.78;89.81
68199;BME280;55021;51.554;17.044;2023-10-19T10:48:56;99245.59;;;9.35;94.27
68199;BME280;55021;51.554;17.044;2023-10-19T11:04:09;99198.41;;;9.38;94.42
68199;BME280;55021;51.554;17.044;2023-10-19T11:19:12;99119.28;;;9.65;92.32
68199;BME280;55021;51.554;17.044;2023-10-19T11:34:15;99111.72;;;9.17;98.48
68199;BME280;55021;51.554;17.044;2023-10-19T11:49:17;99134.03;;;9.48;95.93
68199;BME280;55021;51.554;17.044;2023-10-19T12:04:20;99098.72;;;8.97;99.57
68199;BME280;55021;51.554;17.044;2023-10-19T12:19:22;99109.69;;;9.19;98.32
68199;BME280;55021;51.554;17.044;2023-10-19T12:34:25;99093.72;;;9.09;98.83
68199;BME280;55021;51.554;17.044;2023-10-19T12:49:27;99066.88;;;9.07;98.36
68199;BME280;55021;51.554;17.044;2023-10-19T13:04:29;99031.25;;;8.89;98.16
68199;BME280;55021;51.554;17.044;2023-10-19T13:19:32;99048.59;;;9.09;98.03
68199;BME280;55021;51.554;17.044;2023-10-19T13:34:34;99033.59;;;8.78;100.00
68199;BME280;55021;51.554;17.044;2023-10-19T13:49:37;99055.13;;;9.00;100.00
68199;BME280;55021;51.554;17.044;2023-10-19T14:04:39;99011.31;;;9.20;97.56
68199;BME280;55021;51.554;17.044;2023-10-19T14:19:43;99010.47;;;9.04;97.79
68199;BME280;55021;51.554;17.044;2023-10-19T14:34:46;98981.91;;;8.81;97.71
68199;BME280;55021;51.554;17.044;2023-10-19T14:49:48;99004.59;;;8.05;100.00
68199;BME280;55021;51.554;17.044;2023-10-19T15:04:51;98977.78;;;8.70;100.00
68199;BME280;55021;51.554;17.044;2023-10-19T15:19:53;98998.19;;;8.87;99.20
68199;BME280;55021;51.554;17.044;2023-10-19T15:34:56;98990.47;;;9.14;96.96
68199;BME280;55021;51.554;17.044;2023-10-19T15:49:58;98996.59;;;8.49;100.00
68199;BME280;55021;51.554;17.044;2023-10-19T16:05:16;98985.97;;;8.91;98.44
68199;BME280;55021;51.554;17.044;2023-10-19T16:20:19;98965.84;;;8.65;99.50
68199;BME280;55021;51.554;17.044;2023-10-19T16:35:22;98916.88;;;8.38;99.82
68199;BME280;55021;51.554;17.044;2023-10-19T16:50:24;98950.13;;;8.02;100.00
68199;BME280;55021;51.554;17.044;2023-10-19T17:05:27;98950.91;;;7.73;100.00
68199;BME280;55021;51.554;17.044;2023-10-19T17:20:29;98946.56;;;8.38;100.00
68199;BME280;55021;51.554;17.044;2023-10-19T17:35:32;98875.34;;;7.96;100.00
68199;BME280;55021;51.554;17.044;2023-10-19T17:50:35;98917.75;;;8.89;99.74
68199;BME280;55021;51.554;17.044;2023-10-19T18:05:44;98913.41;;;8.59;100.00
68199;BME280;55021;51.554;17.044;2023-10-19T18:20:46;98914.72;;;8.78;100.00
68199;BME280;55021;51.554;17.044;2023-10-19T18:35:49;98894.84;;;8.85;98.74
68199;BME280;55021;51.554;17.044;2023-10-19T18:50:58;98902.41;;;8.75;99.98
68199;BME280;55021;51.554;17.044;2023-10-19T19:06:03;98886.97;;;8.40;100.00
68199;BME280;55021;51.554;17.044;2023-10-19T19:21:06;98877.38;;;8.37;100.00
68199;BME280;55021;51.554;17.044;2023-10-19T19:36:09;98860.25;;;8.30;100.00
68199;BME280;55021;51.554;17.044;2023-10-19T19:51:11;98857.72;;;8.43;100.00
68199;BME280;55021;51.554;17.044;2023-10-19T20:06:13;98832.09;;;8.54;100.00
68199;BME280;55021;51.554;17.044;2023-10-19T20:21:16;98849.28;;;8.82;100.00
68199;BME280;55021;51.554;17.044;2023-10-19T20:36:18;98807.84;;;8.75;99.68
68199;BME280;55021;51.554;17.044;2023-10-19T20:51:21;98784.94;;;8.21;100.00
68199;BME280;55021;51.554;17.044;2023-10-19T21:06:23;98802.84;;;8.72;100.00
68199;BME280;55021;51.554;17.044;2023-10-19T21:21:26;98789.63;;;8.84;100.00
68199;BME280;55021;51.554;17.044;2023-10-19T21:36:28;98777.03;;;8.91;99.38
68199;BME280;55021;51.554;17.044;2023-10-19T21:51:31;98758.88;;;8.42;100.00
68199;BME280;55021;51.554;17.044;2023-10-19T22:06:33;98762.66;;;8.48;100.00
68199;BME280;55021;51.554;17.044;2023-10-19T22:21:36;98775.19;;;8.91;100.00
68199;BME280;55021;51.554;17.044;2023-10-19T22:36:38;98783.28;;;8.91;100.00
68199;BME280;55021;51.554;17.044;2023-10-19T22:51:41;98785.78;;;8.72;100.00
68199;BME280;55021;51.554;17.044;2023-10-19T23:06:43;98722.59;;;8.94;100.00
68199;BME280;55021;51.554;17.044;2023-10-19T23:21:45;98660.94;;;8.55;100.00
68199;BME280;55021;51.554;17.044;2023-10-19T23:36:47;98702.84;;;8.51;100.00
68199;BME280;55021;51.554;17.044;2023-10-19T23:51:50;98687.09;;;8.76;100.00
